createdAt,value
2022-10-08T00:01:26.399Z,5.18
2022-10-08T00:03:54.968Z,5.40
2022-10-08T00:06:25.886Z,5.65
2022-10-08T00:08:56.334Z,5.68
2022-10-08T00:11:29.691Z,5.85
2022-10-08T00:13:57.783Z,5.97
2022-10-08T00:16:28.082Z,6.07
2022-10-08T00:19:03.792Z,5.88
2022-10-08T00:21:34.348Z,5.60
2022-10-08T00:24:04.208Z,5.75
2022-10-08T00:26:33.507Z,6.07
2022-10-08T00:29:04.314Z,5.53
2022-10-08T00:31:33.286Z,6.10
2022-10-08T00:34:03.546Z,6.05
2022-10-08T00:36:32.228Z,5.45
2022-10-08T00:39:06.078Z,5.78
2022-10-08T00:41:37.238Z,5.85
2022-10-08T00:44:43.579Z,5.47
2022-10-08T00:47:33.637Z,5.40
2022-10-08T00:50:11.756Z,5.72
2022-10-08T00:52:48.699Z,5.80
2022-10-08T00:55:19.994Z,5.20
2022-10-08T00:57:47.660Z,5.80
2022-10-08T01:00:22.239Z,6.15
2022-10-08T01:02:50.170Z,5.82
2022-10-08T01:05:22.934Z,6.68
2022-10-08T01:08:12.105Z,6.35
2022-10-08T01:10:45.239Z,5.85
2022-10-08T01:13:19.603Z,5.78
2022-10-08T01:15:57.544Z,5.43
2022-10-08T01:18:55.244Z,5.68
2022-10-08T01:21:52.332Z,5.90
2022-10-08T01:25:01.941Z,5.18
2022-10-08T01:27:42.924Z,5.60
2022-10-08T01:30:16.367Z,5.93
2022-10-08T01:32:51.253Z,5.68
2022-10-08T01:35:26.328Z,5.25
2022-10-08T01:37:57.399Z,4.82
2022-10-08T01:40:31.077Z,5.50
2022-10-08T01:43:00.836Z,5.45
2022-10-08T01:45:34.223Z,5.30
2022-10-08T01:48:06.564Z,5.75
2022-10-08T01:50:41.711Z,5.30
2022-10-08T01:53:13.145Z,4.60
2022-10-08T01:55:44.921Z,5.68
2022-10-08T01:58:18.617Z,5.10
2022-10-08T02:00:49.936Z,5.10
2022-10-08T02:03:17.495Z,4.95
2022-10-08T02:05:50.415Z,5.47
2022-10-08T02:08:18.632Z,5.00
2022-10-08T02:13:13.619Z,5.28
2022-10-08T02:15:48.822Z,5.68
2022-10-08T02:18:24.354Z,4.40
2022-10-08T02:21:03.954Z,5.43
2022-10-08T02:23:40.017Z,5.00
2022-10-08T02:26:14.333Z,4.75
2022-10-08T02:28:57.138Z,5.38
2022-10-08T02:31:46.683Z,5.15
2022-10-08T02:34:37.824Z,5.05
2022-10-08T02:37:19.323Z,5.50
2022-10-08T02:39:51.256Z,5.35
2022-10-08T02:42:22.224Z,5.63
2022-10-08T02:45:07.629Z,5.40
2022-10-08T02:47:38.557Z,5.00
2022-10-08T02:50:11.676Z,5.18
2022-10-08T02:52:42.853Z,5.05
2022-10-08T02:55:38.028Z,4.75
2022-10-08T02:58:09.964Z,5.13
2022-10-08T03:00:49.720Z,5.05
2022-10-08T03:03:25.689Z,4.80
2022-10-08T03:05:54.411Z,4.72
2022-10-08T03:08:21.940Z,4.53
2022-10-08T03:10:50.597Z,4.93
2022-10-08T03:13:19.049Z,5.00
2022-10-08T03:15:49.630Z,4.75
2022-10-08T03:18:18.279Z,4.88
2022-10-08T03:20:49.515Z,5.03
2022-10-08T03:23:18.580Z,4.90
2022-10-08T03:25:46.163Z,5.28
2022-10-08T03:28:13.688Z,4.35
2022-10-08T03:30:41.392Z,4.32
2022-10-08T03:33:09.055Z,4.60
2022-10-08T03:35:36.519Z,4.70
2022-10-08T03:38:03.964Z,3.97
2022-10-08T03:40:31.474Z,4.50
2022-10-08T03:42:58.910Z,4.63
2022-10-08T03:45:26.352Z,4.40
2022-10-08T03:47:53.874Z,4.03
2022-10-08T03:50:22.035Z,4.38
2022-10-08T03:55:17.938Z,3.92
2022-10-08T03:57:45.335Z,4.30
2022-10-08T04:00:13.215Z,4.82
2022-10-08T04:02:40.754Z,4.45
2022-10-08T04:05:08.633Z,4.95
2022-10-08T04:07:36.142Z,4.35
2022-10-08T04:10:03.975Z,5.13
2022-10-08T04:12:31.401Z,5.03
2022-10-08T04:14:59.005Z,4.88
2022-10-08T04:17:26.433Z,5.13
2022-10-08T04:19:53.919Z,5.00
2022-10-08T04:22:21.366Z,5.65
2022-10-08T04:24:48.769Z,4.90
2022-10-08T04:27:16.203Z,4.75
2022-10-08T04:29:43.800Z,4.72
2022-10-08T04:32:11.260Z,5.10
2022-10-08T04:34:38.708Z,5.15
2022-10-08T04:37:06.107Z,4.97
2022-10-08T04:39:33.938Z,5.05
2022-10-08T04:42:01.596Z,5.20
2022-10-08T04:44:29.034Z,4.70
2022-10-08T04:46:56.787Z,5.05
2022-10-08T04:49:25.503Z,4.97
2022-10-08T04:51:52.952Z,4.65
2022-10-08T04:54:20.350Z,5.25
2022-10-08T04:56:47.828Z,4.93
2022-10-08T04:59:15.445Z,4.80
2022-10-08T05:01:42.938Z,4.80
2022-10-08T05:04:10.450Z,4.78
2022-10-08T05:06:37.904Z,4.93
2022-10-08T05:09:05.460Z,4.53
2022-10-08T05:11:33.394Z,5.15
2022-10-08T05:14:01.189Z,5.10
2022-10-08T05:16:28.648Z,5.03
2022-10-08T05:18:56.815Z,4.38
2022-10-08T05:21:29.271Z,5.00
2022-10-08T05:23:57.882Z,4.95
2022-10-08T05:26:56.394Z,4.57
2022-10-08T05:29:16.293Z,4.65
2022-10-08T05:31:44.635Z,4.78
2022-10-08T05:34:13.599Z,4.25
2022-10-08T05:36:41.298Z,4.55
2022-10-08T05:39:10.194Z,4.60
2022-10-08T05:41:40.619Z,4.80
2022-10-08T05:44:09.979Z,3.97
2022-10-08T05:46:38.893Z,4.13
2022-10-08T05:49:08.804Z,4.25
2022-10-08T05:51:38.387Z,3.80
2022-10-08T05:54:05.906Z,4.30
2022-10-08T05:56:33.487Z,4.15
2022-10-08T05:59:00.907Z,4.00
2022-10-08T06:01:31.516Z,4.10
2022-10-08T06:04:07.833Z,4.30
2022-10-08T06:06:41.700Z,4.03
2022-10-08T06:09:12.877Z,4.32
2022-10-08T06:11:40.637Z,4.10
2022-10-08T06:14:11.363Z,4.45
2022-10-08T06:16:39.389Z,3.95
2022-10-08T06:19:07.849Z,4.05
2022-10-08T06:21:36.516Z,3.90
2022-10-08T06:24:06.834Z,3.53
2022-10-08T06:26:37.931Z,3.80
2022-10-08T06:29:12.563Z,3.30
2022-10-08T06:31:40.100Z,3.85
2022-10-08T06:34:07.868Z,3.88
2022-10-08T06:36:37.575Z,3.78
2022-10-08T06:39:07.909Z,3.92
2022-10-08T06:41:35.932Z,3.92
2022-10-08T06:44:06.285Z,3.60
2022-10-08T06:46:34.375Z,3.80
2022-10-08T06:49:03.397Z,3.70
2022-10-08T06:51:30.989Z,3.30
2022-10-08T06:54:06.000Z,3.08
2022-10-08T06:56:36.713Z,3.08
2022-10-08T06:59:05.597Z,3.30
2022-10-08T07:01:34.629Z,3.08
2022-10-08T07:04:03.302Z,3.20
2022-10-08T07:06:31.010Z,3.42
2022-10-08T07:09:00.870Z,3.28
2022-10-08T07:11:30.224Z,3.20
2022-10-08T07:13:57.860Z,3.67
2022-10-08T07:16:27.598Z,3.70
2022-10-08T07:18:57.096Z,3.33
2022-10-08T07:21:25.115Z,3.25
2022-10-08T07:23:52.956Z,2.83
2022-10-08T07:26:26.578Z,5.60
2022-10-08T07:29:05.779Z,2.75
2022-10-08T07:31:36.152Z,2.67
2022-10-08T07:34:06.770Z,3.20
2022-10-08T07:36:35.080Z,3.05
2022-10-08T07:39:07.986Z,3.03
2022-10-08T07:41:35.901Z,3.05
2022-10-08T07:44:04.725Z,2.95
2022-10-08T07:46:37.530Z,3.03
2022-10-08T07:49:05.263Z,3.22
2022-10-08T07:51:34.244Z,3.00
2022-10-08T07:54:04.816Z,2.95
2022-10-08T07:56:33.706Z,3.17
2022-10-08T07:59:02.071Z,2.90
2022-10-08T08:01:30.633Z,2.90
2022-10-08T08:04:00.930Z,3.05
2022-10-08T08:06:29.353Z,2.50
2022-10-08T08:08:57.011Z,2.65
2022-10-08T08:11:25.232Z,2.80
2022-10-08T08:16:25.318Z,3.10
2022-10-08T08:18:55.786Z,2.97
2022-10-08T08:21:31.852Z,3.22
2022-10-08T08:24:05.130Z,2.60
2022-10-08T08:26:35.744Z,2.85
2022-10-08T08:29:06.466Z,2.80
2022-10-08T08:31:37.118Z,2.70
2022-10-08T08:34:10.548Z,2.83
2022-10-08T08:36:40.469Z,3.78
2022-10-08T08:39:13.836Z,3.38
2022-10-08T08:41:47.152Z,2.75
2022-10-08T08:44:21.980Z,3.03
2022-10-08T08:47:05.253Z,2.67
2022-10-08T08:49:41.619Z,2.80
2022-10-08T08:52:12.315Z,2.80
2022-10-08T08:54:39.908Z,2.80
2022-10-08T08:57:48.747Z,3.00
2022-10-08T09:00:22.367Z,2.65
2022-10-08T09:03:05.310Z,2.72
2022-10-08T09:05:39.067Z,2.40
2022-10-08T09:08:18.724Z,3.05
2022-10-08T09:10:54.069Z,2.70
2022-10-08T09:13:45.473Z,2.50
2022-10-08T09:16:16.519Z,2.88
2022-10-08T09:18:50.177Z,2.60
2022-10-08T09:21:18.620Z,2.70
2022-10-08T09:23:46.599Z,2.33
2022-10-08T09:26:21.745Z,6.03
2022-10-08T09:28:58.055Z,2.80
2022-10-08T09:31:40.385Z,2.40
2022-10-08T09:34:10.729Z,2.50
2022-10-08T09:37:00.326Z,7.57
2022-10-08T09:39:33.881Z,2.75
2022-10-08T09:42:07.444Z,2.75
2022-10-08T09:44:56.793Z,4.15
2022-10-08T09:47:25.960Z,2.50
2022-10-08T09:50:15.421Z,2.50
2022-10-08T09:52:43.231Z,2.55
2022-10-08T09:55:16.635Z,3.00
2022-10-08T09:57:54.060Z,2.90
2022-10-08T10:00:28.295Z,2.55
2022-10-08T10:02:57.999Z,2.95
2022-10-08T10:05:36.074Z,2.45
2022-10-08T10:10:42.203Z,2.78
2022-10-08T10:13:20.365Z,2.47
2022-10-08T10:15:56.840Z,2.90
2022-10-08T10:18:32.621Z,2.63
2022-10-08T10:21:05.639Z,2.72
2022-10-08T10:23:39.108Z,3.17
2022-10-08T10:26:20.648Z,2.45
2022-10-08T10:28:59.859Z,3.08
2022-10-08T10:31:45.170Z,3.05
2022-10-08T10:34:28.328Z,2.33
2022-10-08T10:36:58.713Z,2.40
2022-10-08T10:39:41.547Z,2.38
2022-10-08T10:42:39.507Z,2.47
2022-10-08T10:45:23.306Z,2.53
2022-10-08T10:47:53.725Z,2.40
2022-10-08T10:50:48.388Z,2.70
2022-10-08T10:53:28.844Z,2.58
2022-10-08T10:56:18.414Z,2.70
2022-10-08T10:59:04.596Z,2.65
2022-10-08T11:02:09.348Z,2.70
2022-10-08T11:04:51.000Z,2.22
2022-10-08T11:07:34.040Z,2.85
2022-10-08T11:10:16.487Z,2.40
2022-10-08T11:12:59.368Z,2.75
2022-10-08T11:15:36.154Z,2.53
2022-10-08T11:18:03.614Z,2.50
2022-10-08T11:20:49.001Z,2.40
2022-10-08T11:23:42.146Z,2.50
2022-10-08T11:26:27.120Z,2.22
2022-10-08T11:29:14.280Z,2.15
2022-10-08T11:31:44.142Z,2.33
2022-10-08T11:34:29.586Z,2.25
2022-10-08T11:37:06.042Z,2.53
2022-10-08T11:39:52.385Z,2.25
2022-10-08T11:42:29.522Z,2.80
2022-10-08T11:45:29.510Z,2.25
2022-10-08T11:47:59.599Z,2.22
2022-10-08T11:50:32.980Z,2.58
2022-10-08T11:53:09.508Z,2.70
2022-10-08T11:55:47.370Z,2.40
2022-10-08T11:58:30.360Z,2.67
2022-10-08T12:01:06.585Z,2.40
2022-10-08T12:03:40.161Z,2.53
2022-10-08T12:06:29.807Z,2.42
2022-10-08T12:09:03.195Z,2.22
2022-10-08T12:11:39.698Z,2.33
2022-10-08T12:14:12.252Z,2.58
2022-10-08T12:16:48.670Z,1.92
2022-10-08T12:19:37.014Z,2.03
2022-10-08T12:22:16.641Z,2.28
2022-10-08T12:24:49.727Z,2.13
2022-10-08T12:27:18.055Z,2.20
2022-10-08T12:30:02.273Z,2.33
2022-10-08T12:32:51.101Z,2.50
2022-10-08T12:35:24.465Z,2.33
2022-10-08T12:37:52.384Z,2.53
2022-10-08T12:40:22.835Z,1.70
2022-10-08T12:42:58.254Z,1.92
2022-10-08T12:45:34.260Z,2.00
2022-10-08T12:48:12.192Z,1.98
2022-10-08T12:50:53.751Z,1.98
2022-10-08T12:53:22.200Z,2.25
2022-10-08T12:55:58.217Z,1.92
2022-10-08T12:58:35.576Z,1.73
2022-10-08T13:01:05.185Z,2.22
2022-10-08T13:03:32.915Z,2.47
2022-10-08T13:06:16.450Z,2.13
2022-10-08T13:08:44.985Z,2.30
2022-10-08T13:11:14.718Z,1.90
2022-10-08T13:13:49.513Z,2.00
2022-10-08T13:16:25.192Z,2.20
2022-10-08T13:18:58.704Z,2.03
2022-10-08T13:21:31.982Z,2.13
2022-10-08T13:24:04.009Z,2.38
2022-10-08T13:26:38.960Z,2.17
2022-10-08T13:29:21.503Z,2.03
2022-10-08T13:31:59.885Z,1.70
2022-10-08T13:34:55.761Z,1.73
2022-10-08T13:37:23.155Z,1.90
2022-10-08T13:39:54.908Z,2.00
2022-10-08T13:42:29.793Z,1.63
2022-10-08T13:45:02.128Z,2.20
2022-10-08T13:47:29.755Z,2.38
2022-10-08T13:50:03.373Z,1.63
2022-10-08T13:52:33.944Z,2.10
2022-10-08T13:55:04.732Z,2.05
2022-10-08T13:57:33.288Z,1.80
2022-10-08T14:00:01.783Z,2.08
2022-10-08T14:02:31.326Z,2.03
2022-10-08T14:04:59.350Z,2.20
2022-10-08T14:07:32.890Z,2.20
2022-10-08T14:10:07.114Z,2.05
2022-10-08T14:12:35.469Z,1.80
2022-10-08T14:15:03.058Z,2.10
2022-10-08T14:17:30.953Z,2.33
2022-10-08T14:19:59.014Z,2.45
2022-10-08T14:22:26.444Z,2.30
2022-10-08T14:24:53.996Z,2.70
2022-10-08T14:27:21.497Z,2.35
2022-10-08T14:29:48.950Z,2.13
2022-10-08T14:32:16.510Z,2.20
2022-10-08T14:34:43.933Z,2.65
2022-10-08T14:37:11.488Z,2.28
2022-10-08T14:39:39.056Z,2.35
2022-10-08T14:42:09.524Z,6.10
2022-10-08T14:44:36.964Z,2.65
2022-10-08T14:47:04.454Z,2.13
2022-10-08T14:49:31.960Z,2.88
2022-10-08T14:51:59.753Z,2.40
2022-10-08T14:54:28.076Z,2.30
2022-10-08T14:56:55.492Z,2.25
2022-10-08T14:59:22.960Z,2.00
2022-10-08T15:01:50.469Z,2.13
2022-10-08T15:04:18.013Z,2.17
2022-10-08T15:06:45.608Z,2.30
2022-10-08T15:09:15.338Z,2.20
2022-10-08T15:11:43.493Z,2.40
2022-10-08T15:14:11.168Z,2.15
2022-10-08T15:16:39.566Z,2.60
2022-10-08T15:19:07.784Z,2.65
2022-10-08T15:24:05.123Z,1.83
2022-10-08T15:26:32.727Z,2.55
2022-10-08T15:29:01.307Z,2.40
2022-10-08T15:31:29.497Z,2.75
2022-10-08T15:33:59.591Z,2.45
2022-10-08T15:36:28.142Z,3.45
2022-10-08T15:39:06.215Z,1.98
2022-10-08T15:44:29.665Z,2.80
2022-10-08T15:47:02.592Z,1.80
2022-10-08T15:49:33.892Z,3.05
2022-10-08T15:52:02.373Z,1.83
2022-10-08T15:54:30.121Z,1.67
2022-10-08T15:56:57.594Z,1.83
2022-10-08T15:59:25.085Z,1.90
2022-10-08T16:01:52.610Z,2.53
2022-10-08T16:04:20.083Z,2.00
2022-10-08T16:06:47.632Z,2.25
2022-10-08T16:09:16.897Z,2.22
2022-10-08T16:11:45.960Z,1.80
2022-10-08T16:14:16.687Z,2.22
2022-10-08T16:16:44.830Z,2.40
2022-10-08T16:21:40.739Z,2.58
2022-10-08T16:24:08.882Z,2.38
2022-10-08T16:29:06.863Z,2.95
2022-10-08T16:31:36.738Z,3.33
2022-10-08T16:34:07.446Z,2.88
2022-10-08T16:36:36.662Z,4.05
2022-10-08T16:39:06.315Z,4.13
2022-10-08T16:41:35.008Z,2.50
2022-10-08T16:44:12.741Z,2.92
2022-10-08T16:49:23.676Z,3.22
2022-10-08T16:51:58.106Z,3.55
2022-10-08T16:54:26.845Z,3.40
2022-10-08T16:56:54.719Z,3.20
2022-10-08T16:59:24.923Z,4.43
2022-10-08T17:01:55.086Z,3.28
2022-10-08T17:04:24.550Z,2.75
2022-10-08T17:06:52.454Z,3.38
2022-10-08T17:09:20.731Z,3.30
2022-10-08T17:11:48.498Z,3.38
2022-10-08T17:14:15.967Z,2.83
2022-10-08T17:16:44.937Z,3.08
2022-10-08T17:19:13.139Z,2.85
2022-10-08T17:21:40.814Z,3.03
2022-10-08T17:24:10.680Z,3.50
2022-10-08T17:26:38.700Z,4.00
2022-10-08T17:29:09.303Z,4.13
2022-10-08T17:31:37.607Z,4.05
2022-10-08T17:36:35.424Z,4.20
2022-10-08T17:39:06.012Z,4.80
2022-10-08T17:41:36.412Z,5.22
2022-10-08T17:44:06.916Z,5.55
2022-10-08T17:46:46.077Z,5.13
2022-10-08T17:49:15.784Z,5.68
2022-10-08T17:51:44.677Z,5.95
2022-10-08T17:54:15.193Z,5.90
2022-10-08T17:56:43.596Z,5.15
2022-10-08T17:59:19.814Z,5.07
2022-10-08T18:01:47.512Z,5.45
2022-10-08T18:04:17.479Z,5.80
2022-10-08T18:06:46.662Z,8.48
2022-10-08T18:09:18.489Z,10.35
2022-10-08T18:11:49.218Z,8.65
2022-10-08T18:14:17.385Z,6.30
2022-10-08T18:19:17.035Z,6.90
2022-10-08T18:24:12.214Z,6.70
2022-10-08T18:26:39.822Z,6.70
2022-10-08T18:29:13.451Z,6.90
2022-10-08T18:31:42.627Z,5.57
2022-10-08T18:34:14.574Z,5.40
2022-10-08T18:36:42.529Z,6.32
2022-10-08T18:39:15.398Z,7.07
2022-10-08T18:41:48.509Z,7.30
2022-10-08T18:44:22.237Z,6.28
2022-10-08T18:46:50.326Z,6.50
2022-10-08T18:49:20.123Z,6.15
2022-10-08T18:51:49.532Z,7.80
2022-10-08T18:54:18.749Z,6.93
2022-10-08T18:56:46.430Z,7.07
2022-10-08T18:59:15.534Z,7.07
2022-10-08T19:01:46.279Z,7.38
2022-10-08T19:04:19.505Z,8.90
2022-10-08T19:06:48.691Z,8.30
2022-10-08T19:09:16.709Z,7.60
2022-10-08T19:11:46.775Z,8.07
2022-10-08T19:14:17.183Z,7.78
2022-10-08T19:16:45.650Z,7.22
2022-10-08T19:19:19.564Z,7.30
2022-10-08T19:21:48.231Z,6.88
2022-10-08T19:24:21.444Z,5.95
2022-10-08T19:26:49.899Z,5.90
2022-10-08T19:29:20.547Z,5.47
2022-10-08T19:31:49.965Z,5.85
2022-10-08T19:34:23.072Z,5.00
2022-10-08T19:36:50.774Z,4.82
2022-10-08T19:39:20.923Z,5.00
2022-10-08T19:41:49.504Z,4.93
2022-10-08T19:44:17.306Z,5.32
2022-10-08T19:46:44.957Z,5.18
2022-10-08T19:49:12.979Z,5.70
2022-10-08T19:51:40.760Z,5.13
2022-10-08T19:54:08.232Z,5.55
2022-10-08T19:56:36.327Z,5.30
2022-10-08T19:59:04.752Z,5.50
2022-10-08T20:01:35.493Z,6.43
2022-10-08T20:04:05.040Z,6.70
2022-10-08T20:06:35.688Z,6.00
2022-10-08T20:09:05.024Z,6.10
2022-10-08T20:11:33.486Z,5.50
2022-10-08T20:14:01.559Z,5.00
2022-10-08T20:16:32.619Z,4.90
2022-10-08T20:19:02.886Z,5.30
2022-10-08T20:21:32.360Z,5.60
2022-10-08T20:24:00.347Z,5.78
2022-10-08T20:26:30.760Z,5.50
2022-10-08T20:29:09.496Z,5.05
2022-10-08T20:31:40.254Z,5.00
2022-10-08T20:34:12.980Z,5.00
2022-10-08T20:36:41.209Z,5.32
2022-10-08T20:41:36.221Z,4.43
2022-10-08T20:44:04.733Z,4.57
2022-10-08T20:46:34.146Z,5.00
2022-10-08T20:49:02.564Z,5.00
2022-10-08T20:51:31.179Z,5.70
2022-10-08T20:54:10.366Z,5.70
2022-10-08T20:56:40.264Z,7.10
2022-10-08T20:59:10.896Z,7.88
2022-10-08T21:01:38.989Z,7.43
2022-10-08T21:06:40.961Z,5.13
2022-10-08T21:09:09.314Z,4.95
2022-10-08T21:11:38.202Z,4.13
2022-10-08T21:14:07.722Z,4.25
2022-10-08T21:16:38.677Z,4.35
2022-10-08T21:19:10.583Z,4.22
2022-10-08T21:21:38.456Z,4.63
2022-10-08T21:24:06.181Z,4.43
2022-10-08T21:26:38.929Z,4.63
2022-10-08T21:29:09.332Z,4.53
2022-10-08T21:31:38.702Z,5.05
2022-10-08T21:34:06.923Z,4.95
2022-10-08T21:36:37.999Z,5.45
2022-10-08T21:39:07.710Z,4.97
2022-10-08T21:41:39.594Z,5.65
2022-10-08T21:44:08.005Z,4.93
2022-10-08T21:46:38.200Z,4.85
2022-10-08T21:49:08.806Z,5.03
2022-10-08T21:51:37.075Z,5.50
2022-10-08T21:54:06.652Z,5.18
2022-10-08T21:56:36.736Z,5.45
2022-10-08T21:59:06.556Z,4.88
2022-10-08T22:01:48.850Z,4.95
2022-10-08T22:04:17.747Z,4.57
2022-10-08T22:06:48.455Z,4.70
2022-10-08T22:09:22.519Z,4.93
2022-10-08T22:11:50.761Z,5.15
2022-10-08T22:16:46.460Z,5.18
2022-10-08T22:19:14.858Z,4.63
2022-10-08T22:21:42.583Z,5.40
2022-10-08T22:24:10.475Z,5.05
2022-10-08T22:26:40.913Z,4.82
2022-10-08T22:29:08.529Z,4.93
2022-10-08T22:31:36.763Z,4.63
2022-10-08T22:34:04.281Z,5.35
2022-10-08T22:36:33.372Z,4.80
2022-10-08T22:39:00.848Z,4.68
2022-10-08T22:41:31.351Z,4.88
2022-10-08T22:43:59.480Z,4.60
2022-10-08T22:46:30.196Z,4.30
2022-10-08T22:48:59.963Z,4.38
2022-10-08T22:51:28.542Z,4.85
2022-10-08T22:53:56.407Z,4.20
2022-10-08T22:56:28.089Z,4.80
2022-10-08T22:58:56.097Z,4.68
2022-10-08T23:01:24.730Z,4.65
2022-10-08T23:03:53.096Z,4.97
2022-10-08T23:06:24.006Z,4.50
2022-10-08T23:08:57.308Z,5.00
2022-10-08T23:11:25.608Z,4.68
2022-10-08T23:13:55.384Z,4.57
2022-10-08T23:16:24.117Z,4.68
2022-10-08T23:18:54.922Z,4.53
2022-10-08T23:21:23.499Z,4.68
2022-10-08T23:23:52.019Z,5.05
2022-10-08T23:26:19.758Z,4.88
2022-10-08T23:28:55.959Z,5.47
2022-10-08T23:31:26.271Z,5.00
2022-10-08T23:33:55.171Z,5.03
2022-10-08T23:36:25.435Z,5.43
2022-10-08T23:38:53.014Z,6.07
2022-10-08T23:41:20.685Z,6.15
2022-10-08T23:43:49.524Z,6.57
2022-10-08T23:46:20.920Z,7.57
2022-10-08T23:48:49.183Z,7.63
2022-10-08T23:53:45.174Z,8.40
2022-10-08T23:56:14.104Z,7.80
2022-10-08T23:58:42.129Z,5.50
